sensor_id;sensor_type;location;lat;lon;timestamp;temperature;humidity
70234;DHT22;57622;42.630;23.378;2022-08-02T00:01:23;21.51;49.14
70234;DHT22;57622;42.630;23.378;2022-08-02T00:03:48;21.66;49.61
70234;DHT22;57622;42.630;23.378;2022-08-02T00:06:14;21.85;49.29
70234;DHT22;57622;42.630;23.378;2022-08-02T00:08:39;21.77;48.75
70234;DHT22;57622;42.630;23.378;2022-08-02T00:11:05;21.79;49.61
70234;DHT22;57622;42.630;23.378;2022-08-02T00:13:30;21.91;49.05
70234;DHT22;57622;42.630;23.378;2022-08-02T00:15:55;22.02;49.16
70234;DHT22;57622;42.630;23.378;2022-08-02T00:18:21;22.06;48.81
70234;DHT22;57622;42.630;23.378;2022-08-02T00:20:46;22.16;49.09
70234;DHT22;57622;42.630;23.378;2022-08-02T00:23:12;22.23;48.67
70234;DHT22;57622;42.630;23.378;2022-08-02T00:25:38;22.25;48.47
70234;DHT22;57622;42.630;23.378;2022-08-02T00:28:03;22.17;48.53
70234;DHT22;57622;42.630;23.378;2022-08-02T00:30:29;22.33;49.02
70234;DHT22;57622;42.630;23.378;2022-08-02T00:32:54;22.16;47.86
70234;DHT22;57622;42.630;23.378;2022-08-02T00:35:20;21.98;47.47
70234;DHT22;57622;42.630;23.378;2022-08-02T00:37:45;21.91;47.50
70234;DHT22;57622;42.630;23.378;2022-08-02T00:40:11;21.95;48.41
70234;DHT22;57622;42.630;23.378;2022-08-02T00:42:37;21.95;47.34
70234;DHT22;57622;42.630;23.378;2022-08-02T00:45:04;22.09;47.16
70234;DHT22;57622;42.630;23.378;2022-08-02T00:47:29;22.03;48.73
70234;DHT22;57622;42.630;23.378;2022-08-02T00:49:55;22.16;47.54
70234;DHT22;57622;42.630;23.378;2022-08-02T00:52:22;21.64;47.56
70234;DHT22;57622;42.630;23.378;2022-08-02T00:54:48;21.38;47.80
70234;DHT22;57622;42.630;23.378;2022-08-02T00:57:14;21.30;49.24
70234;DHT22;57622;42.630;23.378;2022-08-02T00:59:39;21.38;49.12
70234;DHT22;57622;42.630;23.378;2022-08-02T01:02:06;21.40;48.84
70234;DHT22;57622;42.630;23.378;2022-08-02T01:04:32;21.58;48.50
70234;DHT22;57622;42.630;23.378;2022-08-02T01:06:59;21.68;47.83
70234;DHT22;57622;42.630;23.378;2022-08-02T01:09:25;21.65;48.94
70234;DHT22;57622;42.630;23.378;2022-08-02T01:11:50;21.44;48.54
70234;DHT22;57622;42.630;23.378;2022-08-02T01:14:16;21.22;49.22
70234;DHT22;57622;42.630;23.378;2022-08-02T01:16:49;21.28;50.28
70234;DHT22;57622;42.630;23.378;2022-08-02T01:19:37;21.40;49.88
70234;DHT22;57622;42.630;23.378;2022-08-02T01:25:24;19.71;54.32
70234;DHT22;57622;42.630;23.378;2022-08-02T01:30:42;19.80;54.20
70234;DHT22;57622;42.630;23.378;2022-08-02T01:33:11;19.79;55.30
70234;DHT22;57622;42.630;23.378;2022-08-02T01:35:43;20.29;53.90
70234;DHT22;57622;42.630;23.378;2022-08-02T01:38:39;20.14;53.97
70234;DHT22;57622;42.630;23.378;2022-08-02T01:41:09;20.24;53.82
70234;DHT22;57622;42.630;23.378;2022-08-02T01:43:39;20.24;54.35
70234;DHT22;57622;42.630;23.378;2022-08-02T01:46:07;20.04;55.40
70234;DHT22;57622;42.630;23.378;2022-08-02T01:48:35;20.21;54.98
70234;DHT22;57622;42.630;23.378;2022-08-02T01:51:01;20.27;55.03
70234;DHT22;57622;42.630;23.378;2022-08-02T01:53:29;20.31;54.96
70234;DHT22;57622;42.630;23.378;2022-08-02T01:55:57;20.27;55.51
70234;DHT22;57622;42.630;23.378;2022-08-02T01:58:26;20.22;55.00
70234;DHT22;57622;42.630;23.378;2022-08-02T02:00:52;20.11;55.34
70234;DHT22;57622;42.630;23.378;2022-08-02T02:03:21;20.24;54.52
70234;DHT22;57622;42.630;23.378;2022-08-02T02:05:48;20.07;55.22
70234;DHT22;57622;42.630;23.378;2022-08-02T02:08:15;20.45;55.35
70234;DHT22;57622;42.630;23.378;2022-08-02T02:10:44;20.11;53.93
70234;DHT22;57622;42.630;23.378;2022-08-02T02:13:15;20.04;54.36
70234;DHT22;57622;42.630;23.378;2022-08-02T02:15:47;19.49;55.54
70234;DHT22;57622;42.630;23.378;2022-08-02T02:18:17;19.53;55.27
70234;DHT22;57622;42.630;23.378;2022-08-02T02:20:45;19.46;55.40
70234;DHT22;57622;42.630;23.378;2022-08-02T02:23:11;19.16;55.88
70234;DHT22;57622;42.630;23.378;2022-08-02T02:25:40;19.18;55.98
70234;DHT22;57622;42.630;23.378;2022-08-02T02:28:10;18.97;57.78
70234;DHT22;57622;42.630;23.378;2022-08-02T02:30:37;19.29;57.54
70234;DHT22;57622;42.630;23.378;2022-08-02T02:33:05;19.62;54.78
70234;DHT22;57622;42.630;23.378;2022-08-02T02:35:33;19.74;55.05
70234;DHT22;57622;42.630;23.378;2022-08-02T02:38:02;19.58;54.80
70234;DHT22;57622;42.630;23.378;2022-08-02T02:40:29;19.62;54.87
70234;DHT22;57622;42.630;23.378;2022-08-02T02:42:57;19.83;53.21
70234;DHT22;57622;42.630;23.378;2022-08-02T02:45:24;19.80;52.96
70234;DHT22;57622;42.630;23.378;2022-08-02T02:47:51;19.10;54.56
70234;DHT22;57622;42.630;23.378;2022-08-02T02:50:19;18.63;56.29
70234;DHT22;57622;42.630;23.378;2022-08-02T02:52:46;18.84;55.92
70234;DHT22;57622;42.630;23.378;2022-08-02T02:55:12;18.70;55.92
70234;DHT22;57622;42.630;23.378;2022-08-02T02:57:39;18.78;55.61
70234;DHT22;57622;42.630;23.378;2022-08-02T03:00:10;18.70;56.19
70234;DHT22;57622;42.630;23.378;2022-08-02T03:02:41;18.94;55.56
70234;DHT22;57622;42.630;23.378;2022-08-02T03:05:08;18.73;55.00
70234;DHT22;57622;42.630;23.378;2022-08-02T03:07:35;18.75;55.88
70234;DHT22;57622;42.630;23.378;2022-08-02T03:10:05;19.01;54.38
70234;DHT22;57622;42.630;23.378;2022-08-02T03:12:33;19.05;54.28
70234;DHT22;57622;42.630;23.378;2022-08-02T03:15:00;18.97;54.54
70234;DHT22;57622;42.630;23.378;2022-08-02T03:17:39;19.04;54.36
70234;DHT22;57622;42.630;23.378;2022-08-02T03:20:06;18.98;55.57
70234;DHT22;57622;42.630;23.378;2022-08-02T03:22:33;18.98;54.79
70234;DHT22;57622;42.630;23.378;2022-08-02T03:24:58;19.11;54.45
70234;DHT22;57622;42.630;23.378;2022-08-02T03:27:24;19.38;53.90
70234;DHT22;57622;42.630;23.378;2022-08-02T03:29:49;19.10;53.89
70234;DHT22;57622;42.630;23.378;2022-08-02T03:32:14;18.87;54.58
70234;DHT22;57622;42.630;23.378;2022-08-02T03:34:40;18.70;55.73
70234;DHT22;57622;42.630;23.378;2022-08-02T03:37:05;18.98;55.03
70234;DHT22;57622;42.630;23.378;2022-08-02T03:39:31;19.18;53.83
70234;DHT22;57622;42.630;23.378;2022-08-02T03:41:57;19.28;53.40
70234;DHT22;57622;42.630;23.378;2022-08-02T03:44:24;18.94;54.42
70234;DHT22;57622;42.630;23.378;2022-08-02T03:46:51;18.68;55.23
70234;DHT22;57622;42.630;23.378;2022-08-02T03:49:17;18.12;56.96
70234;DHT22;57622;42.630;23.378;2022-08-02T03:51:44;17.88;57.99
70234;DHT22;57622;42.630;23.378;2022-08-02T03:54:10;17.91;58.34
70234;DHT22;57622;42.630;23.378;2022-08-02T03:56:35;18.21;57.50
70234;DHT22;57622;42.630;23.378;2022-08-02T03:59:10;18.37;57.50
70234;DHT22;57622;42.630;23.378;2022-08-02T04:01:36;18.46;57.54
70234;DHT22;57622;42.630;23.378;2022-08-02T04:04:01;18.19;57.73
70234;DHT22;57622;42.630;23.378;2022-08-02T04:06:27;17.98;58.12
70234;DHT22;57622;42.630;23.378;2022-08-02T04:08:52;18.09;57.96
70234;DHT22;57622;42.630;23.378;2022-08-02T04:11:18;18.34;57.36
70234;DHT22;57622;42.630;23.378;2022-08-02T04:13:59;18.77;56.57
70234;DHT22;57622;42.630;23.378;2022-08-02T04:16:50;19.07;55.57
70234;DHT22;57622;42.630;23.378;2022-08-02T04:19:20;19.11;55.18
70234;DHT22;57622;42.630;23.378;2022-08-02T04:21:50;18.90;55.71
70234;DHT22;57622;42.630;23.378;2022-08-02T04:24:19;18.73;56.30
70234;DHT22;57622;42.630;23.378;2022-08-02T04:26:46;18.32;57.30
70234;DHT22;57622;42.630;23.378;2022-08-02T04:29:12;18.34;57.57
70234;DHT22;57622;42.630;23.378;2022-08-02T04:31:40;18.42;57.62
70234;DHT22;57622;42.630;23.378;2022-08-02T04:34:06;18.36;57.74
70234;DHT22;57622;42.630;23.378;2022-08-02T04:36:32;18.37;57.59
70234;DHT22;57622;42.630;23.378;2022-08-02T04:38:58;18.52;57.26
70234;DHT22;57622;42.630;23.378;2022-08-02T04:41:41;18.57;56.97
70234;DHT22;57622;42.630;23.378;2022-08-02T04:44:07;18.53;57.39
70234;DHT22;57622;42.630;23.378;2022-08-02T04:46:34;18.77;56.66
70234;DHT22;57622;42.630;23.378;2022-08-02T04:49:00;19.04;56.05
70234;DHT22;57622;42.630;23.378;2022-08-02T04:51:26;19.14;55.49
70234;DHT22;57622;42.630;23.378;2022-08-02T04:53:51;19.35;55.09
70234;DHT22;57622;42.630;23.378;2022-08-02T04:56:17;19.56;54.47
70234;DHT22;57622;42.630;23.378;2022-08-02T04:58:42;19.71;54.15
70234;DHT22;57622;42.630;23.378;2022-08-02T05:01:07;19.84;53.95
70234;DHT22;57622;42.630;23.378;2022-08-02T05:03:33;19.98;54.03
70234;DHT22;57622;42.630;23.378;2022-08-02T05:05:58;20.13;53.73
70234;DHT22;57622;42.630;23.378;2022-08-02T05:08:25;20.24;53.35
70234;DHT22;57622;42.630;23.378;2022-08-02T05:10:51;20.34;52.93
70234;DHT22;57622;42.630;23.378;2022-08-02T05:13:17;20.41;52.60
70234;DHT22;57622;42.630;23.378;2022-08-02T05:15:42;20.55;52.70
70234;DHT22;57622;42.630;23.378;2022-08-02T05:18:08;20.61;52.44
70234;DHT22;57622;42.630;23.378;2022-08-02T05:20:33;20.73;52.36
70234;DHT22;57622;42.630;23.378;2022-08-02T05:22:59;20.83;52.11
70234;DHT22;57622;42.630;23.378;2022-08-02T05:25:24;20.93;52.03
70234;DHT22;57622;42.630;23.378;2022-08-02T05:27:50;20.97;51.94
70234;DHT22;57622;42.630;23.378;2022-08-02T05:30:15;21.17;51.88
70234;DHT22;57622;42.630;23.378;2022-08-02T05:32:42;21.43;51.69
70234;DHT22;57622;42.630;23.378;2022-08-02T05:35:08;21.41;51.51
70234;DHT22;57622;42.630;23.378;2022-08-02T05:37:34;21.36;51.87
70234;DHT22;57622;42.630;23.378;2022-08-02T05:39:59;21.37;51.97
70234;DHT22;57622;42.630;23.378;2022-08-02T05:42:24;21.34;51.61
70234;DHT22;57622;42.630;23.378;2022-08-02T05:44:50;21.38;52.19
70234;DHT22;57622;42.630;23.378;2022-08-02T05:47:15;21.55;51.95
70234;DHT22;57622;42.630;23.378;2022-08-02T05:49:41;21.51;52.40
70234;DHT22;57622;42.630;23.378;2022-08-02T05:52:15;21.57;52.27
70234;DHT22;57622;42.630;23.378;2022-08-02T05:54:48;21.77;51.87
70234;DHT22;57622;42.630;23.378;2022-08-02T05:57:48;21.58;51.54
70234;DHT22;57622;42.630;23.378;2022-08-02T06:00:15;21.71;51.76
70234;DHT22;57622;42.630;23.378;2022-08-02T06:05:39;21.95;50.87
70234;DHT22;57622;42.630;23.378;2022-08-02T06:08:06;22.02;50.04
70234;DHT22;57622;42.630;23.378;2022-08-02T06:10:35;21.99;49.20
70234;DHT22;57622;42.630;23.378;2022-08-02T06:15:32;22.33;48.42
70234;DHT22;57622;42.630;23.378;2022-08-02T06:17:58;22.43;50.71
70234;DHT22;57622;42.630;23.378;2022-08-02T06:20:26;22.29;47.48
70234;DHT22;57622;42.630;23.378;2022-08-02T06:22:53;22.33;46.82
70234;DHT22;57622;42.630;23.378;2022-08-02T06:25:21;22.42;46.66
70234;DHT22;57622;42.630;23.378;2022-08-02T06:27:48;22.59;45.69
70234;DHT22;57622;42.630;23.378;2022-08-02T06:30:13;22.77;45.81
70234;DHT22;57622;42.630;23.378;2022-08-02T06:32:39;22.95;45.46
70234;DHT22;57622;42.630;23.378;2022-08-02T06:35:06;23.01;45.70
70234;DHT22;57622;42.630;23.378;2022-08-02T06:37:49;23.12;45.02
70234;DHT22;57622;42.630;23.378;2022-08-02T06:40:32;23.00;45.07
70234;DHT22;57622;42.630;23.378;2022-08-02T06:43:11;23.04;45.32
70234;DHT22;57622;42.630;23.378;2022-08-02T06:45:37;23.11;44.66
70234;DHT22;57622;42.630;23.378;2022-08-02T06:48:04;23.18;44.82
70234;DHT22;57622;42.630;23.378;2022-08-02T06:50:30;23.33;44.73
70234;DHT22;57622;42.630;23.378;2022-08-02T06:52:55;23.39;44.86
70234;DHT22;57622;42.630;23.378;2022-08-02T06:55:21;23.46;44.67
70234;DHT22;57622;42.630;23.378;2022-08-02T06:57:46;23.45;45.08
70234;DHT22;57622;42.630;23.378;2022-08-02T07:00:12;23.66;45.42
70234;DHT22;57622;42.630;23.378;2022-08-02T07:02:38;23.63;45.26
70234;DHT22;57622;42.630;23.378;2022-08-02T07:05:05;23.55;44.40
70234;DHT22;57622;42.630;23.378;2022-08-02T07:07:31;23.58;45.09
70234;DHT22;57622;42.630;23.378;2022-08-02T07:09:58;23.81;44.17
70234;DHT22;57622;42.630;23.378;2022-08-02T07:12:24;23.92;44.61
70234;DHT22;57622;42.630;23.378;2022-08-02T07:14:49;23.84;43.56
70234;DHT22;57622;42.630;23.378;2022-08-02T07:17:15;23.99;44.34
70234;DHT22;57622;42.630;23.378;2022-08-02T07:19:40;24.04;44.22
70234;DHT22;57622;42.630;23.378;2022-08-02T07:22:06;24.04;44.47
70234;DHT22;57622;42.630;23.378;2022-08-02T07:24:31;24.13;44.19
70234;DHT22;57622;42.630;23.378;2022-08-02T07:26:57;24.14;42.85
70234;DHT22;57622;42.630;23.378;2022-08-02T07:29:23;24.18;43.01
70234;DHT22;57622;42.630;23.378;2022-08-02T07:31:49;24.35;44.72
70234;DHT22;57622;42.630;23.378;2022-08-02T07:34:15;24.55;43.80
70234;DHT22;57622;42.630;23.378;2022-08-02T07:36:40;24.67;43.46
70234;DHT22;57622;42.630;23.378;2022-08-02T07:39:06;24.59;42.48
70234;DHT22;57622;42.630;23.378;2022-08-02T07:41:31;24.76;44.12
70234;DHT22;57622;42.630;23.378;2022-08-02T07:43:57;24.73;42.23
70234;DHT22;57622;42.630;23.378;2022-08-02T07:46:22;24.78;42.27
70234;DHT22;57622;42.630;23.378;2022-08-02T07:48:48;24.86;43.56
70234;DHT22;57622;42.630;23.378;2022-08-02T07:51:14;25.09;44.79
70234;DHT22;57622;42.630;23.378;2022-08-02T07:53:39;25.23;43.67
70234;DHT22;57622;42.630;23.378;2022-08-02T07:56:05;25.20;43.77
70234;DHT22;57622;42.630;23.378;2022-08-02T07:58:30;25.41;43.31
70234;DHT22;57622;42.630;23.378;2022-08-02T08:00:55;25.46;42.84
70234;DHT22;57622;42.630;23.378;2022-08-02T08:03:21;25.65;42.23
70234;DHT22;57622;42.630;23.378;2022-08-02T08:05:46;25.74;41.22
70234;DHT22;57622;42.630;23.378;2022-08-02T08:08:12;25.70;41.60
70234;DHT22;57622;42.630;23.378;2022-08-02T08:10:39;25.81;42.75
70234;DHT22;57622;42.630;23.378;2022-08-02T08:13:05;25.95;41.94
70234;DHT22;57622;42.630;23.378;2022-08-02T08:15:30;25.84;40.55
70234;DHT22;57622;42.630;23.378;2022-08-02T08:17:56;25.99;41.71
70234;DHT22;57622;42.630;23.378;2022-08-02T08:20:22;26.11;41.36
70234;DHT22;57622;42.630;23.378;2022-08-02T08:22:48;26.33;41.11
70234;DHT22;57622;42.630;23.378;2022-08-02T08:25:14;26.32;40.80
70234;DHT22;57622;42.630;23.378;2022-08-02T08:27:50;26.53;41.80
70234;DHT22;57622;42.630;23.378;2022-08-02T08:30:17;26.67;40.57
70234;DHT22;57622;42.630;23.378;2022-08-02T08:32:43;26.60;39.82
70234;DHT22;57622;42.630;23.378;2022-08-02T08:35:09;26.60;40.11
70234;DHT22;57622;42.630;23.378;2022-08-02T08:37:35;26.60;41.02
70234;DHT22;57622;42.630;23.378;2022-08-02T08:40:03;26.71;40.78
70234;DHT22;57622;42.630;23.378;2022-08-02T08:42:30;26.76;41.63
70234;DHT22;57622;42.630;23.378;2022-08-02T08:44:56;26.91;40.32
70234;DHT22;57622;42.630;23.378;2022-08-02T08:47:23;26.84;39.12
70234;DHT22;57622;42.630;23.378;2022-08-02T08:49:51;26.81;39.34
70234;DHT22;57622;42.630;23.378;2022-08-02T08:52:20;26.73;38.45
70234;DHT22;57622;42.630;23.378;2022-08-02T08:54:48;26.83;38.65
70234;DHT22;57622;42.630;23.378;2022-08-02T08:57:15;26.79;39.01
70234;DHT22;57622;42.630;23.378;2022-08-02T08:59:42;26.83;38.20
70234;DHT22;57622;42.630;23.378;2022-08-02T09:02:10;26.97;38.53
70234;DHT22;57622;42.630;23.378;2022-08-02T09:04:35;27.14;39.77
70234;DHT22;57622;42.630;23.378;2022-08-02T09:07:01;27.25;39.76
70234;DHT22;57622;42.630;23.378;2022-08-02T09:09:26;27.42;38.60
70234;DHT22;57622;42.630;23.378;2022-08-02T09:11:52;27.43;37.92
70234;DHT22;57622;42.630;23.378;2022-08-02T09:14:27;27.56;37.32
70234;DHT22;57622;42.630;23.378;2022-08-02T09:17:05;27.60;37.49
70234;DHT22;57622;42.630;23.378;2022-08-02T09:19:30;27.80;38.17
70234;DHT22;57622;42.630;23.378;2022-08-02T09:22:01;27.90;37.16
70234;DHT22;57622;42.630;23.378;2022-08-02T09:24:27;27.82;36.14
70234;DHT22;57622;42.630;23.378;2022-08-02T09:26:53;27.74;38.06
70234;DHT22;57622;42.630;23.378;2022-08-02T09:29:22;27.85;37.58
70234;DHT22;57622;42.630;23.378;2022-08-02T09:31:49;27.94;37.15
70234;DHT22;57622;42.630;23.378;2022-08-02T09:34:15;27.99;35.98
70234;DHT22;57622;42.630;23.378;2022-08-02T09:36:44;27.99;36.41
70234;DHT22;57622;42.630;23.378;2022-08-02T09:39:13;28.24;36.46
70234;DHT22;57622;42.630;23.378;2022-08-02T09:41:43;28.10;36.05
70234;DHT22;57622;42.630;23.378;2022-08-02T09:44:11;27.96;36.29
70234;DHT22;57622;42.630;23.378;2022-08-02T09:46:44;27.79;36.22
70234;DHT22;57622;42.630;23.378;2022-08-02T09:49:12;27.53;37.20
70234;DHT22;57622;42.630;23.378;2022-08-02T09:51:46;27.30;37.50
70234;DHT22;57622;42.630;23.378;2022-08-02T09:54:24;27.18;37.23
70234;DHT22;57622;42.630;23.378;2022-08-02T09:56:56;27.14;37.26
70234;DHT22;57622;42.630;23.378;2022-08-02T09:59:23;26.93;38.43
70234;DHT22;57622;42.630;23.378;2022-08-02T10:01:49;27.16;37.95
70234;DHT22;57622;42.630;23.378;2022-08-02T10:04:20;27.48;38.01
70234;DHT22;57622;42.630;23.378;2022-08-02T10:06:47;27.78;38.70
70234;DHT22;57622;42.630;23.378;2022-08-02T10:09:13;28.14;38.58
70234;DHT22;57622;42.630;23.378;2022-08-02T10:11:38;28.47;38.08
70234;DHT22;57622;42.630;23.378;2022-08-02T10:14:06;28.62;36.46
70234;DHT22;57622;42.630;23.378;2022-08-02T10:16:34;28.65;35.85
70234;DHT22;57622;42.630;23.378;2022-08-02T10:18:59;28.86;35.98
70234;DHT22;57622;42.630;23.378;2022-08-02T10:21:35;28.88;36.02
70234;DHT22;57622;42.630;23.378;2022-08-02T10:26:34;28.91;36.88
70234;DHT22;57622;42.630;23.378;2022-08-02T10:29:01;29.10;36.09
70234;DHT22;57622;42.630;23.378;2022-08-02T10:31:33;28.99;36.38
70234;DHT22;57622;42.630;23.378;2022-08-02T10:34:00;28.62;37.10
70234;DHT22;57622;42.630;23.378;2022-08-02T10:36:28;28.44;37.64
70234;DHT22;57622;42.630;23.378;2022-08-02T10:38:55;28.37;37.73
70234;DHT22;57622;42.630;23.378;2022-08-02T10:41:42;28.18;38.66
70234;DHT22;57622;42.630;23.378;2022-08-02T10:44:08;28.45;37.90
70234;DHT22;57622;42.630;23.378;2022-08-02T10:46:43;28.67;37.57
70234;DHT22;57622;42.630;23.378;2022-08-02T10:54:32;28.37;35.77
70234;DHT22;57622;42.630;23.378;2022-08-02T10:56:59;28.16;37.75
70234;DHT22;57622;42.630;23.378;2022-08-02T10:59:33;28.10;37.45
70234;DHT22;57622;42.630;23.378;2022-08-02T11:02:01;28.13;36.84
70234;DHT22;57622;42.630;23.378;2022-08-02T11:07:17;27.96;38.20
70234;DHT22;57622;42.630;23.378;2022-08-02T11:09:44;27.96;38.05
70234;DHT22;57622;42.630;23.378;2022-08-02T11:12:13;28.18;37.70
70234;DHT22;57622;42.630;23.378;2022-08-02T11:15:02;28.14;38.88
70234;DHT22;57622;42.630;23.378;2022-08-02T11:17:55;28.37;38.97
70234;DHT22;57622;42.630;23.378;2022-08-02T11:20:22;28.75;39.14
70234;DHT22;57622;42.630;23.378;2022-08-02T11:22:48;28.67;36.19
70234;DHT22;57622;42.630;23.378;2022-08-02T11:27:47;29.22;35.66
70234;DHT22;57622;42.630;23.378;2022-08-02T11:30:13;29.43;36.21
70234;DHT22;57622;42.630;23.378;2022-08-02T11:32:39;29.42;35.77
70234;DHT22;57622;42.630;23.378;2022-08-02T11:35:05;29.49;37.09
70234;DHT22;57622;42.630;23.378;2022-08-02T11:37:39;29.53;35.48
70234;DHT22;57622;42.630;23.378;2022-08-02T11:40:07;29.46;36.61
70234;DHT22;57622;42.630;23.378;2022-08-02T11:42:34;29.71;36.84
70234;DHT22;57622;42.630;23.378;2022-08-02T11:45:00;29.09;36.74
70234;DHT22;57622;42.630;23.378;2022-08-02T11:47:26;28.92;37.46
70234;DHT22;57622;42.630;23.378;2022-08-02T11:49:52;28.91;37.44
70234;DHT22;57622;42.630;23.378;2022-08-02T11:52:17;29.13;37.96
70234;DHT22;57622;42.630;23.378;2022-08-02T11:54:43;29.42;37.73
70234;DHT22;57622;42.630;23.378;2022-08-02T11:59:41;29.67;35.48
70234;DHT22;57622;42.630;23.378;2022-08-02T12:02:07;29.80;34.70
70234;DHT22;57622;42.630;23.378;2022-08-02T12:04:34;30.05;34.91
70234;DHT22;57622;42.630;23.378;2022-08-02T12:07:00;30.19;33.45
70234;DHT22;57622;42.630;23.378;2022-08-02T12:09:27;30.25;33.70
70234;DHT22;57622;42.630;23.378;2022-08-02T12:11:54;29.80;35.26
70234;DHT22;57622;42.630;23.378;2022-08-02T12:14:21;29.60;34.56
70234;DHT22;57622;42.630;23.378;2022-08-02T12:16:47;29.33;36.57
70234;DHT22;57622;42.630;23.378;2022-08-02T12:19:32;29.16;37.36
70234;DHT22;57622;42.630;23.378;2022-08-02T12:22:25;29.03;35.98
70234;DHT22;57622;42.630;23.378;2022-08-02T12:24:54;29.22;36.45
70234;DHT22;57622;42.630;23.378;2022-08-02T12:27:38;29.40;35.98
70234;DHT22;57622;42.630;23.378;2022-08-02T12:30:15;29.47;35.56
70234;DHT22;57622;42.630;23.378;2022-08-02T12:32:43;29.61;35.08
70234;DHT22;57622;42.630;23.378;2022-08-02T12:35:18;29.71;35.02
70234;DHT22;57622;42.630;23.378;2022-08-02T12:37:48;29.71;35.86
70234;DHT22;57622;42.630;23.378;2022-08-02T12:42:56;29.85;35.96
70234;DHT22;57622;42.630;23.378;2022-08-02T12:45:23;30.00;35.42
70234;DHT22;57622;42.630;23.378;2022-08-02T12:47:52;30.08;35.66
70234;DHT22;57622;42.630;23.378;2022-08-02T12:50:23;30.12;35.57
70234;DHT22;57622;42.630;23.378;2022-08-02T12:52:49;30.25;35.39
70234;DHT22;57622;42.630;23.378;2022-08-02T12:55:23;30.21;35.57
70234;DHT22;57622;42.630;23.378;2022-08-02T12:58:00;30.26;36.53
70234;DHT22;57622;42.630;23.378;2022-08-02T13:00:32;30.18;35.17
70234;DHT22;57622;42.630;23.378;2022-08-02T13:02:58;29.97;34.48
70234;DHT22;57622;42.630;23.378;2022-08-02T13:05:25;29.61;35.64
70234;DHT22;57622;42.630;23.378;2022-08-02T13:07:53;29.51;35.91
70234;DHT22;57622;42.630;23.378;2022-08-02T13:10:19;29.47;36.30
70234;DHT22;57622;42.630;23.378;2022-08-02T13:12:45;29.53;35.80
70234;DHT22;57622;42.630;23.378;2022-08-02T13:15:11;29.43;35.84
70234;DHT22;57622;42.630;23.378;2022-08-02T13:17:37;29.60;35.56
70234;DHT22;57622;42.630;23.378;2022-08-02T13:20:04;29.64;35.26
70234;DHT22;57622;42.630;23.378;2022-08-02T13:22:29;29.42;35.95
70234;DHT22;57622;42.630;23.378;2022-08-02T13:24:55;29.22;36.17
70234;DHT22;57622;42.630;23.378;2022-08-02T13:27:21;29.23;35.97
70234;DHT22;57622;42.630;23.378;2022-08-02T13:29:47;29.20;36.48
70234;DHT22;57622;42.630;23.378;2022-08-02T13:32:13;29.12;36.56
70234;DHT22;57622;42.630;23.378;2022-08-02T13:34:38;29.22;36.61
70234;DHT22;57622;42.630;23.378;2022-08-02T13:37:04;29.29;36.38
70234;DHT22;57622;42.630;23.378;2022-08-02T13:39:30;29.29;36.30
70234;DHT22;57622;42.630;23.378;2022-08-02T13:41:55;29.31;36.02
70234;DHT22;57622;42.630;23.378;2022-08-02T13:44:21;29.33;36.32
70234;DHT22;57622;42.630;23.378;2022-08-02T13:46:46;29.30;36.36
70234;DHT22;57622;42.630;23.378;2022-08-02T13:49:13;29.36;36.54
70234;DHT22;57622;42.630;23.378;2022-08-02T13:51:38;29.29;35.90
70234;DHT22;57622;42.630;23.378;2022-08-02T13:54:04;29.29;35.43
70234;DHT22;57622;42.630;23.378;2022-08-02T13:56:29;29.22;34.97
70234;DHT22;57622;42.630;23.378;2022-08-02T13:58:55;29.20;35.68
70234;DHT22;57622;42.630;23.378;2022-08-02T14:01:24;29.10;36.61
70234;DHT22;57622;42.630;23.378;2022-08-02T14:03:49;29.06;35.91
70234;DHT22;57622;42.630;23.378;2022-08-02T14:06:14;29.00;35.90
70234;DHT22;57622;42.630;23.378;2022-08-02T14:08:40;28.99;35.81
70234;DHT22;57622;42.630;23.378;2022-08-02T14:11:05;29.06;35.44
70234;DHT22;57622;42.630;23.378;2022-08-02T14:13:31;29.03;35.27
70234;DHT22;57622;42.630;23.378;2022-08-02T14:15:56;29.12;35.39
70234;DHT22;57622;42.630;23.378;2022-08-02T14:18:24;29.12;35.22
70234;DHT22;57622;42.630;23.378;2022-08-02T14:20:49;29.15;35.96
70234;DHT22;57622;42.630;23.378;2022-08-02T14:23:15;28.98;36.27
70234;DHT22;57622;42.630;23.378;2022-08-02T14:25:41;29.00;36.05
70234;DHT22;57622;42.630;23.378;2022-08-02T14:28:07;28.94;36.15
70234;DHT22;57622;42.630;23.378;2022-08-02T14:30:32;28.76;36.84
70234;DHT22;57622;42.630;23.378;2022-08-02T14:32:58;28.78;36.23
70234;DHT22;57622;42.630;23.378;2022-08-02T14:35:23;28.62;36.47
70234;DHT22;57622;42.630;23.378;2022-08-02T14:37:49;28.59;36.76
70234;DHT22;57622;42.630;23.378;2022-08-02T14:40:15;28.40;37.11
70234;DHT22;57622;42.630;23.378;2022-08-02T14:42:40;28.43;37.22
70234;DHT22;57622;42.630;23.378;2022-08-02T14:45:06;28.37;36.94
70234;DHT22;57622;42.630;23.378;2022-08-02T14:47:31;28.36;37.42
70234;DHT22;57622;42.630;23.378;2022-08-02T14:49:57;28.38;36.04
70234;DHT22;57622;42.630;23.378;2022-08-02T14:52:22;28.40;36.30
70234;DHT22;57622;42.630;23.378;2022-08-02T14:54:48;28.44;36.20
70234;DHT22;57622;42.630;23.378;2022-08-02T14:57:14;28.36;36.40
70234;DHT22;57622;42.630;23.378;2022-08-02T14:59:40;28.37;36.86
70234;DHT22;57622;42.630;23.378;2022-08-02T15:02:05;28.59;36.72
70234;DHT22;57622;42.630;23.378;2022-08-02T15:04:31;28.37;36.72
70234;DHT22;57622;42.630;23.378;2022-08-02T15:06:59;28.33;37.32
70234;DHT22;57622;42.630;23.378;2022-08-02T15:09:25;28.28;37.01
70234;DHT22;57622;42.630;23.378;2022-08-02T15:11:51;28.24;37.24
70234;DHT22;57622;42.630;23.378;2022-08-02T15:14:17;28.18;37.48
70234;DHT22;57622;42.630;23.378;2022-08-02T15:16:42;28.18;37.64
70234;DHT22;57622;42.630;23.378;2022-08-02T15:19:08;28.04;38.21
70234;DHT22;57622;42.630;23.378;2022-08-02T15:21:33;27.92;37.39
70234;DHT22;57622;42.630;23.378;2022-08-02T15:23:59;27.80;37.18
70234;DHT22;57622;42.630;23.378;2022-08-02T15:26:24;27.86;37.61
70234;DHT22;57622;42.630;23.378;2022-08-02T15:28:50;27.88;37.74
70234;DHT22;57622;42.630;23.378;2022-08-02T15:31:15;27.80;37.68
70234;DHT22;57622;42.630;23.378;2022-08-02T15:33:43;27.88;37.87
70234;DHT22;57622;42.630;23.378;2022-08-02T15:36:09;27.93;37.78
70234;DHT22;57622;42.630;23.378;2022-08-02T15:38:35;27.76;37.71
70234;DHT22;57622;42.630;23.378;2022-08-02T15:41:01;27.74;37.30
70234;DHT22;57622;42.630;23.378;2022-08-02T15:43:29;27.66;38.25
70234;DHT22;57622;42.630;23.378;2022-08-02T15:45:54;27.62;38.07
70234;DHT22;57622;42.630;23.378;2022-08-02T15:48:20;27.67;38.38